createdAt,value
2019-04-11T00:00:55.417Z,97372.13
2019-04-11T00:04:06.122Z,97377.09
2019-04-11T00:07:14.652Z,97375.06
2019-04-11T00:10:35.503Z,97371.41
2019-04-11T00:13:44.236Z,97370.95
2019-04-11T00:16:53.343Z,97371.34
2019-04-11T00:20:00.379Z,97375.94
2019-04-11T00:23:08.121Z,97373.09
2019-04-11T00:26:17.154Z,97376.08
2019-04-11T00:29:26.712Z,97381.07
2019-04-11T00:32:33.818Z,97379.84
2019-04-11T00:35:41.867Z,97380.22
2019-04-11T00:38:49.929Z,97377.34
2019-04-11T00:41:56.985Z,97380.32
2019-04-11T00:45:05.340Z,97380.31
2019-04-11T00:48:14.433Z,97385.81
2019-04-11T00:51:21.283Z,97384.08
2019-04-11T00:54:29.005Z,97389.61
2019-04-11T00:57:37.104Z,97384.61
2019-04-11T01:00:45.288Z,97387.09
2019-04-11T01:03:52.101Z,97386.25
2019-04-11T01:06:59.064Z,97389.64
2019-04-11T01:10:06.721Z,97390.89
2019-04-11T01:13:20.857Z,97390.51
2019-04-11T01:16:40.949Z,97391.30
2019-04-11T01:19:48.955Z,97402.67
2019-04-11T01:22:58.431Z,97399.34
2019-04-11T01:26:06.122Z,97403.94
2019-04-11T01:29:15.459Z,97402.69
2019-04-11T01:32:22.751Z,97401.02
2019-04-11T01:35:31.056Z,97400.60
2019-04-11T01:38:44.497Z,97398.49
2019-04-11T01:41:51.621Z,97396.81
2019-04-11T01:44:58.574Z,97395.12
2019-04-11T01:48:31.245Z,97395.09
2019-04-11T01:51:38.496Z,97400.59
2019-04-11T01:54:46.647Z,97395.55
2019-04-11T01:57:54.117Z,97396.82
2019-04-11T02:01:10.691Z,97396.83
2019-04-11T02:04:37.022Z,97396.41
2019-04-11T02:07:44.933Z,97401.02
2019-04-11T02:10:52.904Z,97391.31
2019-04-11T02:14:10.927Z,97398.91
2019-04-11T02:17:08.845Z,97400.58
2019-04-11T02:20:16.630Z,97401.42
2019-04-11T02:23:33.594Z,97409.01
2019-04-11T02:26:41.417Z,97403.11
2019-04-11T02:29:49.570Z,97406.89
2019-04-11T02:32:58.312Z,97409.85
2019-04-11T02:36:07.199Z,97415.70
2019-04-11T02:39:20.277Z,97414.03
2019-04-11T02:42:27.697Z,97417.29
2019-04-11T02:45:45.416Z,97417.34
2019-04-11T02:48:44.935Z,97421.59
2019-04-11T02:51:53.558Z,97419.94
2019-04-11T02:55:01.191Z,97421.58
2019-04-11T02:58:10.305Z,97427.49
2019-04-11T03:01:21.865Z,97429.17
2019-04-11T03:04:30.953Z,97425.80
2019-04-11T03:07:38.169Z,97430.02
2019-04-11T03:10:46.159Z,97436.26
2019-04-11T03:13:55.231Z,97440.00
2019-04-11T03:17:11.440Z,97439.37
2019-04-11T03:20:23.061Z,97437.07
2019-04-11T03:23:21.187Z,97441.67
2019-04-11T03:26:29.301Z,97454.22
2019-04-11T03:29:37.875Z,97450.31
2019-04-11T03:33:54.479Z,97450.34
2019-04-11T03:37:00.807Z,97461.98
2019-04-11T03:39:21.784Z,97457.48
2019-04-11T03:42:28.517Z,97460.63
2019-04-11T03:45:44.184Z,97458.65
2019-04-11T03:48:45.512Z,97458.73
2019-04-11T03:51:41.454Z,97464.88
2019-04-11T03:54:49.587Z,97469.32
2019-04-11T03:57:59.156Z,97463.20
2019-04-11T04:01:08.530Z,97463.16
2019-04-11T04:04:19.325Z,97471.47
2019-04-11T04:07:24.639Z,97478.42
2019-04-11T04:10:34.095Z,97474.41
2019-04-11T04:13:45.961Z,97483.05
2019-04-11T04:17:30.783Z,97489.05
2019-04-11T04:20:57.486Z,97485.50
2019-04-11T04:24:08.496Z,97493.39
2019-04-11T04:27:17.133Z,97498.98
2019-04-11T04:30:24.820Z,97493.92
2019-04-11T04:33:35.148Z,97503.05
2019-04-11T04:36:42.335Z,97501.72
2019-04-11T04:39:51.733Z,97508.47
2019-04-11T04:43:01.210Z,97513.95
2019-04-11T04:46:23.746Z,97513.55
2019-04-11T04:49:18.541Z,97524.42
2019-04-11T04:52:27.285Z,97527.44
2019-04-11T04:55:34.859Z,97528.70
2019-04-11T04:58:44.383Z,97532.19
2019-04-11T05:01:53.085Z,97537.22
2019-04-11T05:05:01.360Z,97534.23
2019-04-11T05:08:10.755Z,97530.17
2019-04-11T05:11:18.376Z,97533.98
2019-04-11T05:14:25.541Z,97538.66
2019-04-11T05:17:34.405Z,97535.27
2019-04-11T05:20:41.644Z,97541.29
2019-04-11T05:23:48.455Z,97545.96
2019-04-11T05:26:55.800Z,97549.36
2019-04-11T05:30:03.014Z,97552.35
2019-04-11T05:33:10.124Z,97550.53
2019-04-11T05:36:18.586Z,97554.35
2019-04-11T05:39:25.654Z,97552.08
2019-04-11T05:42:33.396Z,97553.82
2019-04-11T05:45:40.505Z,97561.37
2019-04-11T05:49:00.656Z,97566.48
2019-04-11T05:52:10.268Z,97567.04
2019-04-11T05:55:19.500Z,97566.52
2019-04-11T05:58:30.301Z,97565.66
2019-04-11T06:01:44.619Z,97573.56
2019-04-11T06:04:57.810Z,97568.40
2019-04-11T06:08:07.568Z,97572.58
2019-04-11T06:11:54.612Z,97563.80
2019-04-11T06:15:16.923Z,97574.39
2019-04-11T06:18:52.699Z,97573.55
2019-04-11T06:22:02.766Z,97580.28
2019-04-11T06:25:11.629Z,97580.61
2019-04-11T06:28:30.768Z,97579.04
2019-04-11T06:32:06.011Z,97586.52
2019-04-11T06:35:22.023Z,97588.16
2019-04-11T06:38:42.872Z,97595.40
2019-04-11T06:42:19.226Z,97586.13
2019-04-11T06:46:03.430Z,97587.05
2019-04-11T06:49:22.468Z,97587.88
2019-04-11T06:52:29.727Z,97587.80
2019-04-11T06:55:55.843Z,97600.08
2019-04-11T06:59:06.320Z,97600.07
2019-04-11T07:02:19.215Z,97598.09
2019-04-11T07:05:24.696Z,97598.09
2019-04-11T07:08:40.585Z,97598.50
2019-04-11T07:11:50.973Z,97600.63
2019-04-11T07:15:16.830Z,97594.75
2019-04-11T07:18:41.442Z,97594.75
2019-04-11T07:21:50.341Z,97589.25
2019-04-11T07:25:20.225Z,97606.95
2019-04-11T07:28:41.640Z,97600.22
2019-04-11T07:32:11.690Z,97604.83
2019-04-11T07:35:48.560Z,97604.41
2019-04-11T07:38:59.247Z,97612.38
2019-04-11T07:42:23.894Z,97610.71
2019-04-11T07:45:58.190Z,97617.36
2019-04-11T07:49:06.372Z,97616.47
2019-04-11T07:52:15.536Z,97625.39
2019-04-11T07:55:24.304Z,97630.83
2019-04-11T07:58:42.595Z,97624.52
2019-04-11T08:02:10.390Z,97632.95
2019-04-11T08:05:38.996Z,97630.67
2019-04-11T08:09:04.957Z,97634.39
2019-04-11T08:12:15.650Z,97628.91
2019-04-11T08:15:41.938Z,97634.03
2019-04-11T08:19:15.309Z,97635.94
2019-04-11T08:22:36.032Z,97634.58
2019-04-11T08:26:17.952Z,97633.68
2019-04-11T08:29:27.057Z,97635.70
2019-04-11T08:32:42.073Z,97645.70
2019-04-11T08:36:10.936Z,97646.23
2019-04-11T08:39:22.851Z,97638.25
2019-04-11T08:42:54.871Z,97649.21
2019-04-11T08:46:06.981Z,97658.43
2019-04-11T08:49:30.156Z,97657.94
2019-04-11T08:52:56.112Z,97655.25
2019-04-11T08:56:03.997Z,97653.66
2019-04-11T08:59:43.994Z,97649.84
2019-04-11T09:03:00.209Z,97642.45
2019-04-11T09:06:10.776Z,97651.34
2019-04-11T09:09:38.011Z,97656.78
2019-04-11T09:12:53.163Z,97657.19
2019-04-11T09:16:18.036Z,97658.88
2019-04-11T09:19:45.203Z,97669.39
2019-04-11T09:23:03.761Z,97654.28
2019-04-11T09:26:32.012Z,97659.80
2019-04-11T09:29:42.006Z,97660.89
2019-04-11T09:33:22.689Z,97655.63
2019-04-11T09:36:43.172Z,97656.04
2019-04-11T09:40:12.089Z,97667.55
2019-04-11T09:43:24.489Z,97670.02
2019-04-11T09:47:03.434Z,97667.05
2019-04-11T09:50:16.377Z,97668.60
2019-04-11T09:53:23.270Z,97673.88
2019-04-11T09:56:47.745Z,97670.70
2019-04-11T10:00:14.572Z,97674.35
2019-04-11T10:03:25.648Z,97679.27
2019-04-11T10:06:50.357Z,97673.30
2019-04-11T10:10:19.070Z,97680.17
2019-04-11T10:13:45.035Z,97685.31
2019-04-11T10:17:10.667Z,97676.17
2019-04-11T10:20:18.771Z,97667.66
2019-04-11T10:23:38.640Z,97681.14
2019-04-11T10:26:50.368Z,97677.59
2019-04-11T10:30:17.283Z,97672.16
2019-04-11T10:33:55.517Z,97681.52
2019-04-11T10:37:21.348Z,97676.11
2019-04-11T10:40:56.627Z,97680.66
2019-04-11T10:44:03.886Z,97680.45
2019-04-11T10:47:17.971Z,97684.28
2019-04-11T10:51:03.078Z,97684.29
2019-04-11T10:54:11.360Z,97685.89
2019-04-11T10:57:40.415Z,97687.30
2019-04-11T11:01:12.295Z,97692.88
2019-04-11T11:04:28.054Z,97676.53
2019-04-11T11:07:35.207Z,97674.41
2019-04-11T11:10:43.778Z,97673.72
2019-04-11T11:14:02.328Z,97672.02
2019-04-11T11:17:43.889Z,97667.43
2019-04-11T11:21:00.625Z,97667.91
2019-04-11T11:24:39.130Z,97666.16
2019-04-11T11:27:43.759Z,97672.25
2019-04-11T11:31:20.327Z,97672.41
2019-04-11T11:34:32.538Z,97675.13
2019-04-11T11:37:52.004Z,97673.05
2019-04-11T11:41:16.602Z,97672.70
2019-04-11T11:44:25.606Z,97674.94
2019-04-11T11:48:17.345Z,97678.45
2019-04-11T11:51:37.543Z,97688.38
2019-04-11T11:54:51.514Z,97690.97
2019-04-11T11:58:35.398Z,97682.41
2019-04-11T12:01:50.757Z,97680.31
2019-04-11T12:05:13.303Z,97680.77
2019-04-11T12:08:30.779Z,97673.16
2019-04-11T12:11:42.118Z,97673.12
2019-04-11T12:15:08.078Z,97676.97
2019-04-11T12:18:40.277Z,97669.72
2019-04-11T12:21:47.631Z,97675.73
2019-04-11T12:25:00.617Z,97670.29
2019-04-11T12:28:30.131Z,97677.13
2019-04-11T12:31:37.810Z,97683.73
2019-04-11T12:35:04.063Z,97668.55
2019-04-11T12:38:24.509Z,97668.40
2019-04-11T12:41:49.954Z,97673.59
2019-04-11T12:45:14.689Z,97669.37
2019-04-11T12:48:23.715Z,97667.95
2019-04-11T12:51:55.390Z,97662.47
2019-04-11T12:55:02.403Z,97667.22
2019-04-11T12:58:17.942Z,97664.81
2019-04-11T13:01:55.954Z,97665.83
2019-04-11T13:05:03.649Z,97664.68
2019-04-11T13:08:28.659Z,97667.67
2019-04-11T13:11:36.441Z,97666.13
2019-04-11T13:14:52.436Z,97667.87
2019-04-11T13:18:16.866Z,97663.75
2019-04-11T13:21:34.948Z,97656.38
2019-04-11T13:25:06.752Z,97655.76
2019-04-11T13:28:14.391Z,97657.36
2019-04-11T13:31:38.993Z,97663.67
2019-04-11T13:34:47.202Z,97664.11
2019-04-11T13:38:17.720Z,97664.41
2019-04-11T13:41:42.420Z,97660.15
2019-04-11T13:44:50.765Z,97661.03
2019-04-11T13:48:15.349Z,97669.03
2019-04-11T13:51:32.942Z,97663.98
2019-04-11T13:54:58.788Z,97656.72
2019-04-11T13:58:40.329Z,97666.61
2019-04-11T14:01:47.374Z,97669.82
2019-04-11T14:04:54.680Z,97671.34
2019-04-11T14:08:01.712Z,97665.53
2019-04-11T14:11:12.074Z,97660.42
2019-04-11T14:14:22.071Z,97672.61
2019-04-11T14:17:47.399Z,97666.06
2019-04-11T14:21:01.232Z,97669.37
2019-04-11T14:24:23.697Z,97674.42
2019-04-11T14:27:32.365Z,97670.15
2019-04-11T14:30:52.511Z,97671.48
2019-04-11T14:34:15.558Z,97673.48
2019-04-11T14:37:38.247Z,97674.95
2019-04-11T14:41:02.155Z,97676.13
2019-04-11T14:44:08.888Z,97674.42
2019-04-11T14:47:48.923Z,97672.06
2019-04-11T14:51:29.577Z,97675.16
2019-04-11T14:54:49.288Z,97679.76
2019-04-11T14:58:15.084Z,97682.20
2019-04-11T15:01:27.921Z,97689.91
2019-04-11T15:04:51.015Z,97687.73
2019-04-11T15:07:59.358Z,97688.10
2019-04-11T15:11:26.648Z,97689.44
2019-04-11T15:14:55.481Z,97693.38
2019-04-11T15:18:04.265Z,97692.63
2019-04-11T15:21:41.038Z,97692.03
2019-04-11T15:24:49.596Z,97695.36
2019-04-11T15:28:08.104Z,97704.86
2019-04-11T15:31:41.399Z,97708.78
2019-04-11T15:34:53.529Z,97709.37
2019-04-11T15:38:32.631Z,97711.70
2019-04-11T15:41:40.929Z,97710.56
2019-04-11T15:45:22.262Z,97711.40
2019-04-11T15:49:03.520Z,97706.37
2019-04-11T15:52:13.844Z,97714.36
2019-04-11T15:55:58.056Z,97708.90
2019-04-11T15:59:15.349Z,97714.13
2019-04-11T16:02:36.417Z,97717.90
2019-04-11T16:06:02.106Z,97718.59
2019-04-11T16:09:14.708Z,97731.11
2019-04-11T16:12:29.125Z,97718.66
2019-04-11T16:15:36.452Z,97729.53
2019-04-11T16:19:05.549Z,97731.98
2019-04-11T16:22:30.539Z,97741.16
2019-04-11T16:25:37.675Z,97735.83
2019-04-11T16:29:00.864Z,97733.66
2019-04-11T16:32:12.511Z,97740.84
2019-04-11T16:35:32.833Z,97745.89
2019-04-11T16:38:56.751Z,97743.28
2019-04-11T16:42:15.381Z,97751.61
2019-04-11T16:45:31.928Z,97747.72
2019-04-11T16:48:43.788Z,97749.09
2019-04-11T16:51:52.419Z,97754.41
2019-04-11T16:55:00.965Z,97751.59
2019-04-11T16:58:08.129Z,97757.28
2019-04-11T17:01:17.274Z,97762.08
2019-04-11T17:04:26.001Z,97761.05
2019-04-11T17:07:53.880Z,97767.65
2019-04-11T17:11:04.514Z,97767.50
2019-04-11T17:14:12.666Z,97769.94
2019-04-11T17:17:19.525Z,97772.25
2019-04-11T17:20:28.001Z,97771.16
2019-04-11T17:23:34.834Z,97774.02
2019-04-11T17:26:42.037Z,97775.31
2019-04-11T17:29:48.892Z,97778.27
2019-04-11T17:32:56.187Z,97785.00
2019-04-11T17:36:03.286Z,97774.55
2019-04-11T17:39:12.943Z,97781.28
2019-04-11T17:42:19.985Z,97777.89
2019-04-11T17:45:27.028Z,97781.23
2019-04-11T17:48:33.894Z,97786.31
2019-04-11T17:51:42.809Z,97786.88
2019-04-11T17:54:49.232Z,97788.17
2019-04-11T17:57:57.660Z,97801.66
2019-04-11T18:01:06.294Z,97801.95
2019-04-11T18:04:14.126Z,97802.86
2019-04-11T18:07:21.128Z,97814.62
2019-04-11T18:10:28.014Z,97815.08
2019-04-11T18:13:34.876Z,97819.33
2019-04-11T18:16:44.821Z,97820.74
2019-04-11T18:19:53.082Z,97828.73
2019-04-11T18:23:01.175Z,97822.91
2019-04-11T18:26:08.800Z,97829.63
2019-04-11T18:29:16.692Z,97824.07
2019-04-11T18:32:23.692Z,97826.20
2019-04-11T18:35:31.968Z,97827.88
2019-04-11T18:38:39.088Z,97841.78
2019-04-11T18:41:45.985Z,97836.28
2019-04-11T18:44:52.911Z,97835.07
2019-04-11T18:47:59.841Z,97846.13
2019-04-11T18:51:06.686Z,97841.84
2019-04-11T18:54:17.473Z,97845.20
2019-04-11T18:57:24.351Z,97840.19
2019-04-11T19:00:31.158Z,97847.74
2019-04-11T19:03:41.114Z,97852.83
2019-04-11T19:06:46.671Z,97852.42
2019-04-11T19:09:53.512Z,97857.92
2019-04-11T19:13:00.370Z,97855.40
2019-04-11T19:16:07.314Z,97857.94
2019-04-11T19:19:18.498Z,97852.44
2019-04-11T19:22:37.178Z,97847.79
2019-04-11T19:25:33.489Z,97857.05
2019-04-11T19:28:40.433Z,97845.66
2019-04-11T19:31:47.234Z,97854.13
2019-04-11T19:34:56.902Z,97847.80
2019-04-11T19:38:03.750Z,97851.99
2019-04-11T19:41:11.698Z,97847.38
2019-04-11T19:44:19.367Z,97849.91
2019-04-11T19:47:27.986Z,97857.94
2019-04-11T19:50:35.491Z,97852.45
2019-04-11T19:53:42.454Z,97849.51
2019-04-11T19:57:02.615Z,97858.37
2019-04-11T20:00:11.349Z,97848.25
2019-04-11T20:03:19.283Z,97857.48
2019-04-11T20:06:26.603Z,97854.98
2019-04-11T20:09:33.507Z,97854.98
2019-04-11T20:12:40.338Z,97860.91
2019-04-11T20:15:47.365Z,97854.13
2019-04-11T20:18:56.869Z,97861.31
2019-04-11T20:22:02.954Z,97857.51
2019-04-11T20:25:10.108Z,97858.77
2019-04-11T20:28:19.882Z,97858.77
2019-04-11T20:31:26.344Z,97862.56
2019-04-11T20:34:33.469Z,97861.73
2019-04-11T20:37:44.396Z,97862.54
2019-04-11T20:40:52.583Z,97860.34
2019-04-11T20:44:02.414Z,97858.76
2019-04-11T20:47:09.406Z,97859.08
2019-04-11T20:50:16.455Z,97863.81
2019-04-11T20:53:23.474Z,97860.81
2019-04-11T20:56:30.316Z,97865.08
2019-04-11T20:59:41.243Z,97860.70
2019-04-11T21:02:45.951Z,97862.09
2019-04-11T21:05:52.894Z,97859.95
2019-04-11T21:09:03.067Z,97857.81
2019-04-11T21:12:11.901Z,97857.33
2019-04-11T21:15:18.823Z,97858.21
2019-04-11T21:18:26.326Z,97857.34
2019-04-11T21:21:34.290Z,97854.39
2019-04-11T21:24:41.394Z,97858.23
2019-04-11T21:27:48.363Z,97856.49
2019-04-11T21:30:59.897Z,97853.56
2019-04-11T21:34:04.651Z,97861.08
2019-04-11T21:37:13.960Z,97854.81
2019-04-11T21:40:20.885Z,97861.52
2019-04-11T21:43:27.813Z,97864.64
2019-04-11T21:46:37.035Z,97863.43
2019-04-11T21:49:43.259Z,97862.35
2019-04-11T21:52:50.184Z,97867.80
2019-04-11T21:55:57.190Z,97866.07
2019-04-11T21:59:04.219Z,97865.27
2019-04-11T22:02:12.405Z,97860.20
2019-04-11T22:05:19.326Z,97864.77
2019-04-11T22:08:26.264Z,97863.14
2019-04-11T22:11:33.199Z,97848.25
2019-04-11T22:14:41.967Z,97856.23
2019-04-11T22:17:48.723Z,97855.40
2019-04-11T22:20:55.755Z,97858.37
2019-04-11T22:24:02.725Z,97855.87
2019-04-11T22:27:11.729Z,97851.56
2019-04-11T22:30:25.026Z,97857.59
2019-04-11T22:34:04.823Z,97853.20
2019-04-11T22:37:11.894Z,97855.36
2019-04-11T22:40:18.885Z,97858.66
2019-04-11T22:43:25.809Z,97857.72
2019-04-11T22:46:32.759Z,97856.83
2019-04-11T22:49:40.071Z,97853.45
2019-04-11T22:52:47.073Z,97855.71
2019-04-11T22:55:53.912Z,97852.73
2019-04-11T22:59:00.836Z,97854.02
2019-04-11T23:02:35.867Z,97856.12
2019-04-11T23:05:46.541Z,97861.19
2019-04-11T23:08:51.559Z,97856.55
2019-04-11T23:11:58.454Z,97855.67
2019-04-11T23:15:08.173Z,97853.88
2019-04-11T23:18:15.316Z,97856.05
2019-04-11T23:21:22.279Z,97857.72
2019-04-11T23:24:29.296Z,97853.95
2019-04-11T23:27:36.249Z,97856.87
2019-04-11T23:30:43.258Z,97854.44
2019-04-11T23:33:52.614Z,97854.30
2019-04-11T23:36:59.917Z,97853.30
2019-04-11T23:40:07.122Z,97855.89
2019-04-11T23:43:15.343Z,97853.38
2019-04-11T23:46:22.576Z,97846.41
2019-04-11T23:49:31.337Z,97847.32
2019-04-11T23:52:38.363Z,97847.02
2019-04-11T23:55:45.384Z,97851.17
2019-04-11T23:59:01.535Z,97852.28
